createdAt,value
2023-01-26T00:02:27.093Z,96730.81
2023-01-26T00:04:55.343Z,96727.69
2023-01-26T00:07:23.637Z,96728.75
2023-01-26T00:09:51.880Z,96723.50
2023-01-26T00:12:21.567Z,96720.88
2023-01-26T00:14:52.849Z,96714.56
2023-01-26T00:17:27.571Z,96714.84
2023-01-26T00:19:57.941Z,96714.44
2023-01-26T00:22:27.317Z,96720.94
2023-01-26T00:24:55.582Z,96707.84
2023-01-26T00:27:25.216Z,96710.88
2023-01-26T00:29:53.597Z,96704.84
2023-01-26T00:32:21.859Z,96705.88
2023-01-26T00:34:50.175Z,96707.00
2023-01-26T00:37:18.488Z,96711.66
2023-01-26T00:39:46.735Z,96700.31
2023-01-26T00:42:15.988Z,96700.09
2023-01-26T00:44:45.695Z,96710.44
2023-01-26T00:47:15.056Z,96701.63
2023-01-26T00:49:43.298Z,96700.31
2023-01-26T00:52:12.148Z,96704.63
2023-01-26T00:54:40.533Z,96695.91
2023-01-26T00:57:08.870Z,96698.81
2023-01-26T00:59:37.102Z,96681.28
2023-01-26T01:02:06.854Z,96690.81
2023-01-26T01:04:35.685Z,96688.44
2023-01-26T01:07:04.117Z,96686.06
2023-01-26T01:09:32.368Z,96686.28
2023-01-26T01:12:00.677Z,96678.31
2023-01-26T01:14:29.004Z,96692.19
2023-01-26T01:16:57.615Z,96695.59
2023-01-26T01:19:27.468Z,96691.59
2023-01-26T01:21:55.724Z,96686.66
2023-01-26T01:24:24.080Z,96693.22
2023-01-26T01:26:52.348Z,96696.03
2023-01-26T01:29:20.637Z,96695.00
2023-01-26T01:31:48.960Z,96700.44
2023-01-26T01:34:17.871Z,96682.13
2023-01-26T01:36:47.470Z,96683.69
2023-01-26T01:41:43.074Z,96680.13
2023-01-26T01:44:19.663Z,96684.88
2023-01-26T01:46:51.054Z,96684.97
2023-01-26T01:49:21.758Z,96678.91
2023-01-26T01:51:55.113Z,96678.06
2023-01-26T01:54:28.826Z,96687.78
2023-01-26T01:56:59.412Z,96675.84
2023-01-26T01:59:27.515Z,96672.91
2023-01-26T02:01:57.048Z,96679.16
2023-01-26T02:04:25.773Z,96674.13
2023-01-26T02:06:58.365Z,96671.69
2023-01-26T02:09:44.464Z,96677.47
2023-01-26T02:12:14.423Z,96673.03
2023-01-26T02:14:42.906Z,96664.28
2023-01-26T02:17:11.432Z,96654.97
2023-01-26T02:19:46.885Z,96657.59
2023-01-26T02:22:21.495Z,96662.69
2023-01-26T02:24:49.992Z,96654.53
2023-01-26T02:27:19.671Z,96653.47
2023-01-26T02:29:47.909Z,96640.59
2023-01-26T02:32:16.153Z,96647.88
2023-01-26T02:34:44.480Z,96651.91
2023-01-26T02:37:15.560Z,96641.22
2023-01-26T02:39:48.674Z,96638.00
2023-01-26T02:42:34.620Z,96634.81
2023-01-26T02:45:04.606Z,96627.69
2023-01-26T02:47:32.993Z,96625.53
2023-01-26T02:50:00.697Z,96625.81
2023-01-26T02:52:30.947Z,96618.09
2023-01-26T02:55:16.922Z,96615.00
2023-01-26T02:57:45.405Z,96610.69
2023-01-26T03:00:18.375Z,96607.72
2023-01-26T03:02:47.660Z,96604.03
2023-01-26T03:05:16.616Z,96601.41
2023-01-26T03:07:44.939Z,96600.72
2023-01-26T03:10:13.957Z,96593.69
2023-01-26T03:12:42.254Z,96595.84
2023-01-26T03:15:29.170Z,96592.34
2023-01-26T03:18:23.030Z,96588.66
2023-01-26T03:21:05.244Z,96596.56
2023-01-26T03:23:51.150Z,96580.81
2023-01-26T03:26:37.177Z,96584.56
2023-01-26T03:29:05.490Z,96582.31
2023-01-26T03:31:33.787Z,96594.69
2023-01-26T03:34:03.513Z,96589.94
2023-01-26T03:36:31.878Z,96592.97
2023-01-26T03:39:00.110Z,96589.00
2023-01-26T03:41:45.976Z,96588.66
2023-01-26T03:44:31.936Z,96583.94
2023-01-26T03:47:17.774Z,96594.97
2023-01-26T03:50:05.066Z,96590.50
2023-01-26T03:52:51.162Z,96596.75
2023-01-26T03:55:36.978Z,96588.34
2023-01-26T03:58:05.247Z,96581.78
2023-01-26T04:00:33.470Z,96588.44
2023-01-26T04:03:19.552Z,96589.28
2023-01-26T04:06:15.682Z,96590.78
2023-01-26T04:08:45.348Z,96592.69
2023-01-26T04:11:13.923Z,96585.16
2023-01-26T04:14:00.028Z,96583.66
2023-01-26T04:16:46.046Z,96583.03
2023-01-26T04:19:31.942Z,96583.16
2023-01-26T04:22:01.697Z,96574.31
2023-01-26T04:24:29.950Z,96580.75
2023-01-26T04:26:58.172Z,96578.88
2023-01-26T04:29:26.484Z,96580.06
2023-01-26T04:31:54.767Z,96572.16
2023-01-26T04:34:23.042Z,96578.03
2023-01-26T04:36:51.279Z,96579.00
2023-01-26T04:39:21.043Z,96578.72
2023-01-26T04:41:49.304Z,96579.19
2023-01-26T04:44:17.852Z,96562.09
2023-01-26T04:46:47.210Z,96567.47
2023-01-26T04:49:15.737Z,96561.16
2023-01-26T04:51:44.074Z,96563.88
2023-01-26T04:54:12.387Z,96563.25
2023-01-26T04:56:42.823Z,96561.47
2023-01-26T04:59:12.377Z,96553.66
2023-01-26T05:01:43.253Z,96567.47
2023-01-26T05:04:12.792Z,96562.88
2023-01-26T05:06:42.137Z,96560.84
2023-01-26T05:09:10.616Z,96568.06
2023-01-26T05:11:38.882Z,96559.53
2023-01-26T05:14:08.549Z,96561.00
2023-01-26T05:16:36.920Z,96558.69
2023-01-26T05:19:05.183Z,96575.56
2023-01-26T05:21:33.464Z,96574.50
2023-01-26T05:24:01.764Z,96566.03
2023-01-26T05:26:30.038Z,96563.91
2023-01-26T05:28:58.291Z,96574.38
2023-01-26T05:31:28.041Z,96562.91
2023-01-26T05:33:56.363Z,96564.44
2023-01-26T05:36:24.634Z,96570.44
2023-01-26T05:38:52.884Z,96564.81
2023-01-26T05:41:21.193Z,96565.63
2023-01-26T05:43:49.451Z,96564.00
2023-01-26T05:46:17.716Z,96564.94
2023-01-26T05:48:47.308Z,96572.06
2023-01-26T05:51:15.604Z,96571.94
2023-01-26T05:53:43.830Z,96578.34
2023-01-26T05:56:12.169Z,96571.59
2023-01-26T05:58:40.415Z,96573.94
2023-01-26T06:01:08.983Z,96570.31
2023-01-26T06:03:37.276Z,96572.44
2023-01-26T06:06:07.407Z,96572.78
2023-01-26T06:08:35.658Z,96566.97
2023-01-26T06:11:03.881Z,96565.19
2023-01-26T06:13:32.191Z,96573.34
2023-01-26T06:16:01.710Z,96569.44
2023-01-26T06:18:30.051Z,96573.16
2023-01-26T06:21:00.180Z,96576.16
2023-01-26T06:23:29.923Z,96577.22
2023-01-26T06:25:59.923Z,96576.72
2023-01-26T06:28:28.675Z,96579.16
2023-01-26T06:31:00.800Z,96584.75
2023-01-26T06:33:29.166Z,96576.91
2023-01-26T06:35:57.511Z,96568.78
2023-01-26T06:38:25.774Z,96589.47
2023-01-26T06:40:55.665Z,96589.38
2023-01-26T06:43:23.995Z,96573.34
2023-01-26T06:45:52.262Z,96570.69
2023-01-26T06:48:20.528Z,96566.63
2023-01-26T06:50:48.789Z,96571.25
2023-01-26T06:53:30.713Z,96565.53
2023-01-26T06:56:00.405Z,96565.53
2023-01-26T06:58:28.643Z,96564.25
2023-01-26T07:00:57.905Z,96561.22
2023-01-26T07:03:26.241Z,96560.63
2023-01-26T07:05:54.541Z,96561.25
2023-01-26T07:08:22.767Z,96561.25
2023-01-26T07:10:51.398Z,96557.41
2023-01-26T07:13:21.020Z,96561.88
2023-01-26T07:15:49.289Z,96574.69
2023-01-26T07:18:17.518Z,96567.94
2023-01-26T07:20:45.785Z,96564.00
2023-01-26T07:23:13.996Z,96559.28
2023-01-26T07:25:44.439Z,96558.84
2023-01-26T07:28:12.811Z,96563.41
2023-01-26T07:30:42.443Z,96559.97
2023-01-26T07:33:10.759Z,96569.00
2023-01-26T07:35:39.023Z,96560.28
2023-01-26T07:38:07.355Z,96563.88
2023-01-26T07:40:35.612Z,96550.78
2023-01-26T07:43:03.940Z,96550.13
2023-01-26T07:45:32.235Z,96547.38
2023-01-26T07:48:01.860Z,96549.25
2023-01-26T07:50:30.263Z,96540.72
2023-01-26T07:53:01.282Z,96542.19
2023-01-26T07:55:29.626Z,96538.47
2023-01-26T07:57:59.385Z,96542.22
2023-01-26T08:00:27.910Z,96549.94
2023-01-26T08:02:56.173Z,96535.31
2023-01-26T08:05:25.923Z,96534.47
2023-01-26T08:07:54.181Z,96538.22
2023-01-26T08:10:22.467Z,96533.53
2023-01-26T08:12:51.075Z,96538.53
2023-01-26T08:15:19.340Z,96544.25
2023-01-26T08:17:47.723Z,96541.25
2023-01-26T08:20:16.077Z,96535.19
2023-01-26T08:22:45.706Z,96526.09
2023-01-26T08:25:14.529Z,96535.31
2023-01-26T08:27:42.807Z,96539.31
2023-01-26T08:30:12.694Z,96531.72
2023-01-26T08:32:41.231Z,96531.69
2023-01-26T08:35:10.253Z,96535.06
2023-01-26T08:37:38.918Z,96530.00
2023-01-26T08:40:10.603Z,96521.31
2023-01-26T08:42:39.178Z,96525.34
2023-01-26T08:45:08.335Z,96536.81
2023-01-26T08:47:36.641Z,96531.72
2023-01-26T08:50:05.353Z,96524.91
2023-01-26T08:52:33.598Z,96524.25
2023-01-26T08:55:02.183Z,96520.88
2023-01-26T08:57:31.792Z,96528.09
2023-01-26T09:00:00.020Z,96525.88
2023-01-26T09:02:28.904Z,96524.31
2023-01-26T09:04:57.198Z,96521.69
2023-01-26T09:07:26.560Z,96520.03
2023-01-26T09:09:54.861Z,96519.97
2023-01-26T09:12:23.111Z,96525.25
2023-01-26T09:14:52.698Z,96527.06
2023-01-26T09:17:20.964Z,96519.06
2023-01-26T09:19:49.369Z,96532.09
2023-01-26T09:22:17.648Z,96527.69
2023-01-26T09:24:45.972Z,96530.22
2023-01-26T09:27:14.236Z,96531.13
2023-01-26T09:29:42.507Z,96537.44
2023-01-26T09:32:12.199Z,96534.91
2023-01-26T09:34:40.426Z,96533.28
2023-01-26T09:37:08.967Z,96542.25
2023-01-26T09:39:37.245Z,96537.47
2023-01-26T09:42:27.817Z,96541.72
2023-01-26T09:45:04.283Z,96543.78
2023-01-26T09:47:42.173Z,96535.06
2023-01-26T09:50:14.666Z,96531.94
2023-01-26T09:52:49.688Z,96535.13
2023-01-26T09:55:21.256Z,96541.19
2023-01-26T09:57:51.515Z,96539.16
2023-01-26T10:00:23.341Z,96534.00
2023-01-26T10:03:02.204Z,96530.41
2023-01-26T10:05:34.848Z,96526.28
2023-01-26T10:08:05.338Z,96531.09
2023-01-26T10:10:37.215Z,96532.00
2023-01-26T10:13:05.611Z,96534.34
2023-01-26T10:15:39.002Z,96523.84
2023-01-26T10:18:13.726Z,96515.88
2023-01-26T10:20:45.322Z,96509.38
2023-01-26T10:23:17.110Z,96499.38
2023-01-26T10:25:46.992Z,96515.44
2023-01-26T10:28:16.909Z,96512.44
2023-01-26T10:30:47.219Z,96510.59
2023-01-26T10:33:27.820Z,96509.78
2023-01-26T10:35:56.339Z,96507.00
2023-01-26T10:38:28.924Z,96501.44
2023-01-26T10:40:58.464Z,96511.63
2023-01-26T10:43:27.080Z,96499.28
2023-01-26T10:45:55.411Z,96504.28
2023-01-26T10:48:26.827Z,96508.09
2023-01-26T10:50:56.292Z,96502.91
2023-01-26T10:53:26.357Z,96494.59
2023-01-26T10:56:02.612Z,96493.56
2023-01-26T10:58:43.331Z,96488.31
2023-01-26T11:01:12.483Z,96494.88
2023-01-26T11:03:42.739Z,96484.06
2023-01-26T11:06:16.014Z,96481.78
2023-01-26T11:08:44.563Z,96488.94
2023-01-26T11:11:26.185Z,96489.66
2023-01-26T11:14:13.825Z,96491.16
2023-01-26T11:16:43.383Z,96493.47
2023-01-26T11:19:15.364Z,96488.94
2023-01-26T11:21:48.031Z,96484.19
2023-01-26T11:24:21.243Z,96488.31
2023-01-26T11:27:21.652Z,96491.31
2023-01-26T11:30:31.128Z,96490.50
2023-01-26T11:33:03.432Z,96491.88
2023-01-26T11:35:40.986Z,96486.31
2023-01-26T11:38:22.403Z,96487.78
2023-01-26T11:40:57.135Z,96487.66
2023-01-26T11:43:52.160Z,96479.19
2023-01-26T11:46:34.137Z,96476.19
2023-01-26T11:49:12.688Z,96474.81
2023-01-26T11:51:53.096Z,96476.31
2023-01-26T11:54:34.305Z,96475.81
2023-01-26T11:57:08.860Z,96485.03
2023-01-26T11:59:40.181Z,96477.41
2023-01-26T12:02:24.226Z,96473.13
2023-01-26T12:04:55.829Z,96466.97
2023-01-26T12:07:30.055Z,96457.06
2023-01-26T12:10:00.136Z,96459.63
2023-01-26T12:12:34.949Z,96456.50
2023-01-26T12:15:06.847Z,96455.91
2023-01-26T12:17:45.784Z,96455.97
2023-01-26T12:20:25.128Z,96460.28
2023-01-26T12:22:56.642Z,96457.88
2023-01-26T12:25:29.926Z,96444.78
2023-01-26T12:28:04.031Z,96448.38
2023-01-26T12:30:36.769Z,96446.34
2023-01-26T12:33:05.442Z,96438.25
2023-01-26T12:35:50.253Z,96435.78
2023-01-26T12:38:23.124Z,96434.06
2023-01-26T12:41:03.854Z,96432.50
2023-01-26T12:43:44.174Z,96436.66
2023-01-26T12:46:13.898Z,96426.69
2023-01-26T12:48:45.976Z,96430.53
2023-01-26T12:51:19.281Z,96433.06
2023-01-26T12:53:55.278Z,96434.81
2023-01-26T12:56:27.152Z,96437.16
2023-01-26T12:58:56.965Z,96434.25
2023-01-26T13:01:26.818Z,96429.81
2023-01-26T13:03:56.925Z,96433.56
2023-01-26T13:06:26.407Z,96425.16
2023-01-26T13:09:04.660Z,96429.13
2023-01-26T13:11:50.092Z,96429.31
2023-01-26T13:14:26.749Z,96430.53
2023-01-26T13:16:55.340Z,96429.56
2023-01-26T13:19:37.072Z,96425.72
2023-01-26T13:22:05.385Z,96422.47
2023-01-26T13:24:45.084Z,96420.19
2023-01-26T13:27:35.340Z,96415.25
2023-01-26T13:30:04.017Z,96421.78
2023-01-26T13:33:02.825Z,96420.47
2023-01-26T13:35:32.902Z,96422.59
2023-01-26T13:38:07.155Z,96430.22
2023-01-26T13:40:38.258Z,96423.16
2023-01-26T13:43:25.318Z,96427.78
2023-01-26T13:46:07.070Z,96428.84
2023-01-26T13:48:42.477Z,96424.56
2023-01-26T13:51:14.940Z,96432.25
2023-01-26T13:53:45.829Z,96428.13
2023-01-26T13:56:30.037Z,96423.47
2023-01-26T13:59:06.494Z,96424.19
2023-01-26T14:01:35.267Z,96420.19
2023-01-26T14:04:05.156Z,96419.56
2023-01-26T14:06:34.527Z,96419.06
2023-01-26T14:09:04.483Z,96419.53
2023-01-26T14:11:34.610Z,96420.28
2023-01-26T14:14:03.740Z,96424.28
2023-01-26T14:16:33.391Z,96423.47
2023-01-26T14:19:07.326Z,96420.06
2023-01-26T14:21:46.551Z,96424.16
2023-01-26T14:24:15.147Z,96421.00
2023-01-26T14:26:45.018Z,96425.34
2023-01-26T14:29:16.923Z,96423.63
2023-01-26T14:31:45.314Z,96427.72
2023-01-26T14:34:20.051Z,96431.88
2023-01-26T14:36:48.404Z,96415.03
2023-01-26T14:39:18.927Z,96424.31
2023-01-26T14:41:48.900Z,96414.25
2023-01-26T14:44:17.196Z,96430.31
2023-01-26T14:46:52.486Z,96415.53
2023-01-26T14:49:23.886Z,96412.00
2023-01-26T14:51:56.490Z,96403.16
2023-01-26T14:54:28.319Z,96406.34
2023-01-26T14:56:59.144Z,96414.88
2023-01-26T14:59:33.736Z,96419.06
2023-01-26T15:02:15.212Z,96415.59
2023-01-26T15:04:47.142Z,96415.00
2023-01-26T15:07:34.070Z,96415.66
2023-01-26T15:10:03.751Z,96404.31
2023-01-26T15:12:36.231Z,96415.69
2023-01-26T15:15:12.388Z,96409.72
2023-01-26T15:17:41.699Z,96409.28
2023-01-26T15:20:27.697Z,96410.19
2023-01-26T15:22:56.043Z,96416.72
2023-01-26T15:25:26.263Z,96428.56
2023-01-26T15:27:58.905Z,96424.84
2023-01-26T15:30:28.811Z,96431.38
2023-01-26T15:32:57.703Z,96433.16
2023-01-26T15:35:27.852Z,96431.09
2023-01-26T15:38:03.632Z,96435.88
2023-01-26T15:40:32.712Z,96422.81
2023-01-26T15:43:14.221Z,96426.78
2023-01-26T15:45:44.525Z,96439.13
2023-01-26T15:48:12.798Z,96442.00
2023-01-26T15:50:41.070Z,96445.88
2023-01-26T15:53:14.344Z,96442.34
2023-01-26T15:55:43.823Z,96445.97
2023-01-26T15:58:12.173Z,96444.91
2023-01-26T16:00:41.919Z,96453.75
2023-01-26T16:03:13.830Z,96442.78
2023-01-26T16:05:42.222Z,96439.13
2023-01-26T16:08:10.694Z,96436.50
2023-01-26T16:10:39.004Z,96442.69
2023-01-26T16:13:10.742Z,96442.78
2023-01-26T16:15:43.350Z,96435.97
2023-01-26T16:18:12.096Z,96427.03
2023-01-26T16:20:42.130Z,96433.53
2023-01-26T16:23:17.930Z,96434.75
2023-01-26T16:25:46.849Z,96437.88
2023-01-26T16:28:15.347Z,96435.50
2023-01-26T16:30:46.081Z,96437.13
2023-01-26T16:33:16.096Z,96438.56
2023-01-26T16:35:44.833Z,96439.13
2023-01-26T16:38:13.742Z,96434.31
2023-01-26T16:40:42.873Z,96443.84
2023-01-26T16:43:16.819Z,96446.56
2023-01-26T16:45:46.789Z,96435.97
2023-01-26T16:48:17.179Z,96438.69
2023-01-26T16:50:46.295Z,96444.47
2023-01-26T16:53:20.052Z,96446.22
2023-01-26T16:55:48.387Z,96453.94
2023-01-26T16:58:17.086Z,96454.31
2023-01-26T17:00:46.988Z,96454.78
2023-01-26T17:03:15.484Z,96453.13
2023-01-26T17:05:43.809Z,96451.06
2023-01-26T17:08:12.283Z,96447.00
2023-01-26T17:11:00.732Z,96449.91
2023-01-26T17:13:30.521Z,96454.16
2023-01-26T17:16:00.312Z,96442.91
2023-01-26T17:18:28.595Z,96442.91
2023-01-26T17:21:03.148Z,96446.44
2023-01-26T17:23:32.143Z,96444.38
2023-01-26T17:26:00.580Z,96435.63
2023-01-26T17:28:28.974Z,96450.41
2023-01-26T17:31:00.064Z,96444.75
2023-01-26T17:33:31.063Z,96444.09
2023-01-26T17:36:02.764Z,96449.25
2023-01-26T17:38:31.224Z,96454.13
2023-01-26T17:41:00.224Z,96444.75
2023-01-26T17:43:28.626Z,96451.81
2023-01-26T17:46:03.548Z,96450.47
2023-01-26T17:48:33.686Z,96451.16
2023-01-26T17:51:01.996Z,96447.97
2023-01-26T17:53:30.310Z,96447.69
2023-01-26T17:55:58.586Z,96455.41
2023-01-26T17:58:26.803Z,96447.78
2023-01-26T18:00:55.022Z,96452.75
2023-01-26T18:03:26.359Z,96447.13
2023-01-26T18:05:56.874Z,96439.50
2023-01-26T18:08:25.635Z,96441.63
2023-01-26T18:10:59.359Z,96442.13
2023-01-26T18:13:27.785Z,96431.25
2023-01-26T18:15:56.424Z,96431.44
2023-01-26T18:18:25.457Z,96435.13
2023-01-26T18:20:53.945Z,96441.22
2023-01-26T18:23:24.486Z,96433.03
2023-01-26T18:25:52.754Z,96435.38
2023-01-26T18:28:20.995Z,96437.19
2023-01-26T18:30:49.519Z,96442.00
2023-01-26T18:33:17.777Z,96439.56
2023-01-26T18:35:46.045Z,96438.25
2023-01-26T18:38:14.536Z,96440.44
2023-01-26T18:40:44.174Z,96444.66
2023-01-26T18:43:12.457Z,96449.88
2023-01-26T18:45:42.715Z,96441.03
2023-01-26T18:48:10.992Z,96444.66
2023-01-26T18:50:39.412Z,96448.19
2023-01-26T18:53:07.641Z,96441.63
2023-01-26T18:55:35.914Z,96444.72
2023-01-26T18:58:05.535Z,96444.88
2023-01-26T19:00:34.455Z,96452.19
2023-01-26T19:03:02.707Z,96449.06
2023-01-26T19:05:31.470Z,96451.81
2023-01-26T19:08:09.990Z,96447.25
2023-01-26T19:10:39.187Z,96441.97
2023-01-26T19:13:09.198Z,96443.50
2023-01-26T19:15:37.859Z,96454.00
2023-01-26T19:18:06.318Z,96433.38
2023-01-26T19:20:34.649Z,96439.34
2023-01-26T19:23:03.992Z,96427.47
2023-01-26T19:25:32.787Z,96434.16
2023-01-26T19:28:01.119Z,96423.16
2023-01-26T19:30:30.878Z,96428.75
2023-01-26T19:33:16.885Z,96424.31
2023-01-26T19:35:45.156Z,96426.88
2023-01-26T19:38:13.492Z,96430.28
2023-01-26T19:40:41.831Z,96439.16
2023-01-26T19:43:10.124Z,96443.03
2023-01-26T19:45:40.114Z,96445.44
2023-01-26T19:48:08.682Z,96441.13
2023-01-26T19:50:37.025Z,96437.66
2023-01-26T19:53:07.587Z,96432.91
2023-01-26T19:55:36.030Z,96431.75
2023-01-26T19:58:04.316Z,96432.66
2023-01-26T20:00:32.658Z,96438.41
2023-01-26T20:03:02.296Z,96436.66
2023-01-26T20:05:30.597Z,96437.53
2023-01-26T20:07:58.873Z,96435.22
2023-01-26T20:10:27.236Z,96444.06
2023-01-26T20:12:57.321Z,96434.63
2023-01-26T20:15:25.744Z,96437.84
2023-01-26T20:17:54.048Z,96433.38
2023-01-26T20:20:24.606Z,96425.28
2023-01-26T20:22:52.912Z,96431.53
2023-01-26T20:25:21.269Z,96424.91
2023-01-26T20:27:50.046Z,96426.41
2023-01-26T20:30:18.884Z,96425.19
2023-01-26T20:32:47.205Z,96430.06
2023-01-26T20:35:15.838Z,96434.50
2023-01-26T20:37:45.749Z,96429.94
2023-01-26T20:40:14.717Z,96433.09
2023-01-26T20:42:43.251Z,96422.88
2023-01-26T20:45:12.220Z,96426.25
2023-01-26T20:47:41.043Z,96424.34
2023-01-26T20:50:10.315Z,96422.03
2023-01-26T20:52:39.191Z,96422.75
2023-01-26T20:55:11.762Z,96422.56
2023-01-26T20:57:40.117Z,96424.97
2023-01-26T21:00:10.283Z,96424.19
2023-01-26T21:02:38.902Z,96422.84
2023-01-26T21:05:08.586Z,96423.88
2023-01-26T21:07:36.913Z,96419.66
2023-01-26T21:10:05.809Z,96421.78
2023-01-26T21:12:38.311Z,96414.66
2023-01-26T21:15:07.900Z,96407.47
2023-01-26T21:17:36.299Z,96406.97
2023-01-26T21:20:05.388Z,96408.69
2023-01-26T21:22:33.684Z,96414.94
2023-01-26T21:25:02.118Z,96416.09
2023-01-26T21:27:30.448Z,96421.13
2023-01-26T21:30:00.150Z,96418.00
2023-01-26T21:32:28.393Z,96414.03
2023-01-26T21:34:56.705Z,96417.06
2023-01-26T21:37:25.103Z,96417.41
2023-01-26T21:39:53.405Z,96416.34
2023-01-26T21:42:21.712Z,96413.81
2023-01-26T21:45:07.386Z,96417.41
2023-01-26T21:47:37.108Z,96414.91
2023-01-26T21:50:06.022Z,96403.19
2023-01-26T21:52:51.500Z,96413.22
2023-01-26T21:55:19.777Z,96412.59
2023-01-26T21:58:05.636Z,96415.16
2023-01-26T22:00:33.903Z,96422.41
2023-01-26T22:03:03.586Z,96403.81
2023-01-26T22:05:31.913Z,96410.03
2023-01-26T22:08:00.303Z,96403.44
2023-01-26T22:10:28.649Z,96404.97
2023-01-26T22:12:56.941Z,96406.63
2023-01-26T22:15:25.187Z,96396.59
2023-01-26T22:17:53.573Z,96403.00
2023-01-26T22:20:23.242Z,96403.78
2023-01-26T22:22:51.575Z,96402.19
2023-01-26T22:25:20.282Z,96399.56
2023-01-26T22:27:48.636Z,96405.41
2023-01-26T22:30:17.238Z,96407.66
2023-01-26T22:32:45.522Z,96403.50
2023-01-26T22:35:13.819Z,96404.69
2023-01-26T22:37:43.541Z,96397.09
2023-01-26T22:40:14.007Z,96395.25
2023-01-26T22:42:42.411Z,96402.97
2023-01-26T22:45:11.619Z,96401.38
2023-01-26T22:47:41.164Z,96404.34
2023-01-26T22:50:11.725Z,96395.09
2023-01-26T22:52:40.155Z,96396.78
2023-01-26T22:55:10.786Z,96389.34
2023-01-26T22:57:38.874Z,96384.13
2023-01-26T23:00:08.638Z,96379.22
2023-01-26T23:02:36.977Z,96385.75
2023-01-26T23:05:05.756Z,96384.50
2023-01-26T23:07:34.069Z,96390.63
2023-01-26T23:10:02.467Z,96386.06
2023-01-26T23:12:32.180Z,96383.25
2023-01-26T23:15:00.495Z,96388.44
2023-01-26T23:17:28.804Z,96381.16
2023-01-26T23:19:57.055Z,96378.44
2023-01-26T23:22:25.402Z,96378.97
2023-01-26T23:25:07.574Z,96374.72
2023-01-26T23:27:37.211Z,96377.81
2023-01-26T23:30:06.435Z,96376.41
2023-01-26T23:32:34.681Z,96375.19
2023-01-26T23:35:02.942Z,96380.03
2023-01-26T23:37:31.211Z,96380.59
2023-01-26T23:39:59.475Z,96377.88
2023-01-26T23:42:27.748Z,96378.00
2023-01-26T23:44:57.359Z,96374.69
2023-01-26T23:47:25.718Z,96370.59
2023-01-26T23:49:54.001Z,96377.56
2023-01-26T23:52:22.281Z,96372.81
2023-01-26T23:54:50.548Z,96366.34
2023-01-26T23:57:18.820Z,96361.41
2023-01-26T23:59:47.041Z,96368.44
